Time;durP1;ratioP1;P1;durP2;ratioP2;P2;SDS_P1;SDS_P2;PMS_P1;PMS_P2;Temp;Humidity;BMP_temperature;BMP_pressure;BME280_temperature;BME280_humidity;BME280_pressure;Samples;Min_cycle;Max_cycle;Signal;HPM_P1;HPM_P2
2021/06/02 00:01:45;;;;;;;;;;;;;;;5.90;85.11;95910.33;1831182;78;20210;-66
2021/06/02 00:04:12;;;;;;;;;;;;;;;5.98;84.53;95915.64;1822573;78;20783;-66
2021/06/02 00:06:38;;;;;;;;;;;;;;;5.97;84.90;95919.10;1830900;78;20172;-65
2021/06/02 00:09:05;;;;;;;;;;;;;;;5.94;84.90;95921.72;1831164;78;20217;-65
2021/06/02 00:11:35;;;;;;;;;;;;;;;5.99;84.38;95916.94;1831334;78;20473;-65
2021/06/02 00:14:02;;;;;;;;;;;;;;;6.01;84.03;95915.20;1831125;78;20481;-65
2021/06/02 00:16:29;;;;;;;;;;;;;;;5.96;83.62;95913.00;1831271;78;20160;-66
2021/06/02 00:18:55;;;;;;;;;;;;;;;5.98;83.67;95916.95;1831009;78;20680;-75
2021/06/02 00:21:21;;;;;;;;;;;;;;;5.98;83.62;95911.70;1831364;78;20192;-65
2021/06/02 00:23:48;;;;;;;;;;;;;;;6.09;83.63;95908.68;1831095;78;20208;-65
2021/06/02 00:26:14;;;;;;;;;;;;;;;6.15;83.49;95907.41;1831026;78;20215;-66
2021/06/02 00:28:42;;;;;;;;;;;;;;;6.19;83.43;95905.22;1831165;78;20167;-66
2021/06/02 00:31:09;;;;;;;;;;;;;;;6.22;83.23;95900.02;1831194;78;20486;-66
2021/06/02 00:33:36;;;;;;;;;;;;;;;6.23;82.81;95899.58;1831059;78;20148;-66
2021/06/02 00:36:03;;;;;;;;;;;;;;;6.12;82.84;95910.00;1830947;78;20137;-66
2021/06/02 00:38:29;;;;;;;;;;;;;;;5.99;82.88;95910.83;1831213;78;20212;-65
2021/06/02 00:40:56;;;;;;;;;;;;;;;5.99;82.99;95904.28;1803602;78;20140;-65
2021/06/02 00:43:22;;;;;;;;;;;;;;;6.09;83.02;95913.05;1831139;78;20501;-65
2021/06/02 00:45:49;;;;;;;;;;;;;;;6.05;83.27;95906.50;1833391;78;20199;-65
2021/06/02 00:48:18;;;;;;;;;;;;;;;6.10;83.19;95903.00;1839012;78;20128;-65
2021/06/02 00:50:49;;;;;;;;;;;;;;;6.20;82.75;95906.09;1839067;78;20168;-65
2021/06/02 00:53:17;;;;;;;;;;;;;;;6.16;82.27;95902.60;1839187;78;20477;-65
2021/06/02 00:55:44;;;;;;;;;;;;;;;6.04;82.01;95902.11;1838965;78;20160;-65
2021/06/02 00:58:26;;;;;;;;;;;;;;;5.99;81.98;95899.04;1839035;78;20168;-65
2021/06/02 01:00:53;;;;;;;;;;;;;;;5.84;81.97;95897.19;1838789;78;20148;-66
2021/06/02 01:03:24;;;;;;;;;;;;;;;5.67;83.41;95911.53;1839025;78;20156;-66
2021/06/02 01:05:51;;;;;;;;;;;;;;;5.56;83.29;95911.89;1839025;78;20145;-66
2021/06/02 01:08:20;;;;;;;;;;;;;;;5.48;83.49;95909.66;1838760;78;20136;-66
2021/06/02 01:10:47;;;;;;;;;;;;;;;5.50;83.49;95908.80;1838922;78;20140;-66
2021/06/02 01:13:15;;;;;;;;;;;;;;;5.56;83.49;95907.52;1839176;78;20132;-66
2021/06/02 01:15:41;;;;;;;;;;;;;;;5.59;83.67;95904.05;1838944;78;20473;-65
2021/06/02 01:18:09;;;;;;;;;;;;;;;5.51;84.04;95909.23;1809502;78;20148;-65
2021/06/02 01:20:39;;;;;;;;;;;;;;;5.46;84.22;95904.41;1839066;78;20183;-65
2021/06/02 01:23:07;;;;;;;;;;;;;;;5.36;84.44;95908.70;1839072;78;20140;-66
2021/06/02 01:25:36;;;;;;;;;;;;;;;5.30;84.68;95909.12;1838909;78;20472;-66
2021/06/02 01:28:04;;;;;;;;;;;;;;;5.27;84.35;95901.25;1838994;78;20136;-65
2021/06/02 01:30:31;;;;;;;;;;;;;;;5.28;84.64;95904.30;1838797;78;20148;-65
2021/06/02 01:33:04;;;;;;;;;;;;;;;5.21;85.32;95905.55;1839036;78;20135;-65
2021/06/02 01:35:54;;;;;;;;;;;;;;;5.19;84.92;95904.69;1838946;78;20171;-65
2021/06/02 01:38:47;;;;;;;;;;;;;;;5.20;84.27;95913.41;1838954;78;20160;-66
2021/06/02 01:41:22;;;;;;;;;;;;;;;5.14;83.84;95909.01;1839164;78;20132;-65
2021/06/02 01:44:08;;;;;;;;;;;;;;;5.06;83.60;95912.41;1838051;78;20155;-66
2021/06/02 01:47:10;;;;;;;;;;;;;;;4.98;84.44;95916.27;1836072;78;20516;-65
2021/06/02 01:49:56;;;;;;;;;;;;;;;4.91;84.78;95914.47;1833189;78;20156;-66
2021/06/02 01:52:50;;;;;;;;;;;;;;;4.84;86.11;95913.56;1833124;78;20141;-65
2021/06/02 01:55:54;;;;;;;;;;;;;;;4.93;85.59;95920.59;1833352;78;20140;-65
2021/06/02 01:58:42;;;;;;;;;;;;;;;4.94;85.23;95919.31;1833077;78;20161;-65
2021/06/02 02:01:12;;;;;;;;;;;;;;;4.99;84.87;95924.14;1763719;81;20484;-65
2021/06/02 02:04:15;;;;;;;;;;;;;;;4.97;85.25;95923.69;1763570;81;20183;-65
2021/06/02 02:07:04;;;;;;;;;;;;;;;5.05;85.53;95921.13;1740643;82;20141;-65
2021/06/02 02:09:50;;;;;;;;;;;;;;;5.11;85.05;95918.11;1789071;80;20166;-66
2021/06/02 02:12:26;;;;;;;;;;;;;;;5.04;84.87;95918.95;1753717;82;20148;-66
2021/06/02 02:15:05;;;;;;;;;;;;;;;4.97;84.54;95923.69;1751447;82;20490;-67
2021/06/02 02:18:06;;;;;;;;;;;;;;;4.90;84.56;95924.06;1751665;82;20178;-66
2021/06/02 02:20:39;;;;;;;;;;;;;;;4.90;84.43;95924.06;1751384;82;20162;-67
2021/06/02 02:23:24;;;;;;;;;;;;;;;4.93;84.17;95921.46;1751585;82;20146;-67
2021/06/02 02:26:00;;;;;;;;;;;;;;;4.95;84.06;95922.36;1755673;82;20153;-66
2021/06/02 02:28:30;;;;;;;;;;;;;;;5.04;84.21;95926.80;1788482;80;20541;-66
2021/06/02 02:31:03;;;;;;;;;;;;;;;5.12;84.39;95921.63;1787942;80;20155;-66
2021/06/02 02:34:06;;;;;;;;;;;;;;;5.12;84.45;95925.55;1788503;80;20155;-66
2021/06/02 02:36:44;;;;;;;;;;;;;;;5.13;83.79;95934.70;1753972;82;20150;-66
2021/06/02 02:39:14;;;;;;;;;;;;;;;4.96;83.61;95925.44;1788649;80;20179;-66
2021/06/02 02:41:53;;;;;;;;;;;;;;;4.79;84.12;95929.64;1753980;82;20170;-66
2021/06/02 02:44:55;;;;;;;;;;;;;;;4.73;84.05;95932.17;1751240;82;20166;-66
2021/06/02 02:47:36;;;;;;;;;;;;;;;4.68;83.80;95933.44;1756999;82;20161;-66
2021/06/02 02:50:15;;;;;;;;;;;;;;;4.72;84.20;95931.30;1765915;81;20165;-67
2021/06/02 02:53:04;;;;;;;;;;;;;;;4.61;84.60;95939.49;1762003;81;20141;-67
2021/06/02 02:55:36;;;;;;;;;;;;;;;4.61;84.81;95935.97;1759781;82;20177;-66
2021/06/02 02:58:11;;;;;;;;;;;;;;;4.57;85.11;95934.21;1765697;81;20140;-66
2021/06/02 03:01:04;;;;;;;;;;;;;;;4.58;85.09;95934.20;1765657;81;20183;-67
2021/06/02 03:03:33;;;;;;;;;;;;;;;4.53;85.56;95936.77;1765859;81;20151;-66
2021/06/02 03:06:21;;;;;;;;;;;;;;;4.58;85.08;95943.79;1746568;81;20131;-66
2021/06/02 03:09:19;;;;;;;;;;;;;;;4.44;85.52;95946.28;1765804;81;20135;-66
2021/06/02 03:12:07;;;;;;;;;;;;;;;4.41;85.79;95946.22;1765605;81;20187;-67
2021/06/02 03:15:06;;;;;;;;;;;;;;;4.41;85.77;95939.69;1765330;81;20484;-66
2021/06/02 03:17:57;;;;;;;;;;;;;;;4.38;85.98;95951.41;1765748;81;20159;-66
2021/06/02 03:20:29;;;;;;;;;;;;;;;4.41;86.11;95947.12;1765397;81;20167;-66
2021/06/02 03:23:22;;;;;;;;;;;;;;;4.47;86.14;95951.52;1765802;81;20226;-66
2021/06/02 03:26:08;;;;;;;;;;;;;;;4.50;85.72;95957.65;1765874;81;20151;-68
2021/06/02 03:29:03;;;;;;;;;;;;;;;4.54;86.40;95959.88;1765620;81;20147;-66
2021/06/02 03:32:08;;;;;;;;;;;;;;;4.57;86.75;95957.30;1765821;81;20211;-67
2021/06/02 03:34:59;;;;;;;;;;;;;;;4.63;86.86;95957.34;1765739;81;20150;-66
2021/06/02 03:37:41;;;;;;;;;;;;;;;4.66;87.27;95956.50;1765237;81;20148;-66
2021/06/02 03:40:23;;;;;;;;;;;;;;;4.67;86.79;95959.14;1765665;81;20179;-67
2021/06/02 03:43:17;;;;;;;;;;;;;;;4.72;86.91;95963.98;1765553;81;20139;-66
2021/06/02 03:46:07;;;;;;;;;;;;;;;4.81;87.00;95967.54;1746520;81;20152;-65
2021/06/02 03:49:03;;;;;;;;;;;;;;;4.87;86.85;95963.26;1765736;81;20147;-64
2021/06/02 03:51:56;;;;;;;;;;;;;;;4.94;87.04;95961.59;1765335;81;20180;-63
2021/06/02 03:54:50;;;;;;;;;;;;;;;5.03;88.04;95967.31;1765750;81;20503;-63
2021/06/02 03:57:34;;;;;;;;;;;;;;;5.16;87.65;95962.63;1765508;80;20147;-63
2021/06/02 04:00:15;;;;;;;;;;;;;;;5.29;87.42;95966.21;1765856;81;20163;-63
2021/06/02 04:03:14;;;;;;;;;;;;;;;5.35;87.03;95969.77;1765730;81;20147;-64
2021/06/02 04:05:53;;;;;;;;;;;;;;;5.43;86.81;95971.13;1764317;81;21223;-64
2021/06/02 04:08:40;;;;;;;;;;;;;;;5.49;86.89;95972.47;1765794;81;20176;-63
2021/06/02 04:11:28;;;;;;;;;;;;;;;5.57;87.37;95973.42;1765656;81;20211;-63
2021/06/02 04:14:03;;;;;;;;;;;;;;;5.77;87.16;95973.55;1765742;81;20162;-63
2021/06/02 04:16:38;;;;;;;;;;;;;;;5.96;87.13;95970.63;1765726;81;20568;-63
2021/06/02 04:19:15;;;;;;;;;;;;;;;6.11;87.13;95972.89;1765621;81;20231;-63
2021/06/02 04:21:44;;;;;;;;;;;;;;;6.31;87.16;95972.97;1765727;81;20147;-63
2021/06/02 04:24:14;;;;;;;;;;;;;;;6.53;87.12;95968.66;1765598;81;20508;-67
2021/06/02 04:26:40;;;;;;;;;;;;;;;6.73;86.94;95968.30;1764969;81;20520;-63
2021/06/02 04:29:10;;;;;;;;;;;;;;;6.94;86.65;95970.95;1765809;81;20159;-63
2021/06/02 04:31:38;;;;;;;;;;;;;;;7.11;86.24;95977.55;1765519;81;20147;-63
2021/06/02 04:34:05;;;;;;;;;;;;;;;7.27;85.93;95974.92;1765590;81;20140;-63
2021/06/02 04:36:32;;;;;;;;;;;;;;;7.42;85.52;95968.36;1765452;81;20519;-63
2021/06/02 04:38:59;;;;;;;;;;;;;;;7.58;85.15;95971.84;1765380;81;20143;-64
2021/06/02 04:41:27;;;;;;;;;;;;;;;7.74;84.85;95977.53;1765675;81;20143;-63
2021/06/02 04:43:57;;;;;;;;;;;;;;;7.87;84.68;95975.75;1765340;81;20140;-64
2021/06/02 04:46:23;;;;;;;;;;;;;;;8.02;84.71;95972.22;1764837;81;20228;-65
2021/06/02 04:48:51;;;;;;;;;;;;;;;8.12;84.66;95966.05;1770818;81;20485;-64
2021/06/02 04:51:36;;;;;;;;;;;;;;;8.30;84.76;95972.13;1769357;81;20144;-64
2021/06/02 04:54:40;;;;;;;;;;;;;;;8.50;84.23;95978.22;1768622;81;20158;-62
2021/06/02 04:57:31;;;;;;;;;;;;;;;8.71;83.96;95978.98;1768521;81;20163;-62
2021/06/02 05:00:07;;;;;;;;;;;;;;;8.90;83.05;95978.02;1762355;81;20167;-70
2021/06/02 05:03:13;;;;;;;;;;;;;;;9.06;81.52;95977.02;1767372;81;20142;-74
2021/06/02 05:06:05;;;;;;;;;;;;;;;9.20;81.58;95986.61;1768754;81;20155;-62
2021/06/02 05:08:58;;;;;;;;;;;;;;;9.31;81.72;95982.98;1768550;81;20155;-63
2021/06/02 05:11:45;;;;;;;;;;;;;;;9.54;82.03;95981.94;1760487;81;20154;-61
2021/06/02 05:14:41;;;;;;;;;;;;;;;9.70;80.83;95988.84;1768476;81;20191;-65
2021/06/02 05:17:35;;;;;;;;;;;;;;;9.84;81.27;95987.38;1768436;81;20198;-61
2021/06/02 05:20:16;;;;;;;;;;;;;;;9.99;80.66;95989.44;1768683;81;20142;-62
2021/06/02 05:22:49;;;;;;;;;;;;;;;10.10;80.21;95988.88;1764270;81;20154;-63
2021/06/02 05:25:54;;;;;;;;;;;;;;;10.16;80.52;95983.11;1768607;81;20230;-64
2021/06/02 05:28:27;;;;;;;;;;;;;;;10.24;80.69;95983.02;1768512;81;20242;-60
2021/06/02 05:31:26;;;;;;;;;;;;;;;10.36;80.25;95984.23;1768638;81;20563;-62
2021/06/02 05:34:02;;;;;;;;;;;;;;;10.41;79.64;95978.91;1768702;81;20155;-62
2021/06/02 05:36:54;;;;;;;;;;;;;;;10.44;78.42;95987.23;1768225;81;20479;-61
2021/06/02 05:39:30;;;;;;;;;;;;;;;10.54;79.49;95991.52;1768596;81;20159;-64
2021/06/02 05:42:16;;;;;;;;;;;;;;;10.70;79.71;95981.17;1767332;81;20456;-62
2021/06/02 05:44:58;;;;;;;;;;;;;;;10.82;79.29;95987.62;1768559;81;20159;-62
2021/06/02 05:47:51;;;;;;;;;;;;;;;10.93;79.12;95983.95;1763459;81;20163;-64
2021/06/02 05:50:41;;;;;;;;;;;;;;;11.05;79.28;95987.30;1788555;80;20155;-64
2021/06/02 05:53:31;;;;;;;;;;;;;;;11.20;78.48;95984.89;1726279;82;20545;-64
2021/06/02 05:56:10;;;;;;;;;;;;;;;11.34;78.25;95991.30;1713204;82;20170;-65
2021/06/02 05:58:46;;;;;;;;;;;;;;;11.45;76.96;95988.03;1766948;81;20137;-64
2021/06/02 06:01:28;;;;;;;;;;;;;;;11.54;75.67;95986.13;1766925;81;20165;-64
2021/06/02 06:04:30;;;;;;;;;;;;;;;11.62;75.29;95990.41;1766645;81;20501;-64
2021/06/02 06:07:02;;;;;;;;;;;;;;;11.70;74.94;95988.96;1766682;81;20145;-64
2021/06/02 06:09:40;;;;;;;;;;;;;;;11.81;73.83;95985.67;1766651;81;20141;-63
2021/06/02 06:12:27;;;;;;;;;;;;;;;11.88;74.79;95983.84;1765548;81;20189;-62
2021/06/02 06:15:23;;;;;;;;;;;;;;;12.02;75.43;95981.83;1766823;81;20141;-62
2021/06/02 06:17:59;;;;;;;;;;;;;;;12.15;75.34;95981.61;1766615;81;20138;-63
2021/06/02 06:20:38;;;;;;;;;;;;;;;12.27;74.30;95986.22;1759386;81;20203;-64
2021/06/02 06:23:41;;;;;;;;;;;;;;;12.32;73.42;95979.06;1754479;81;20259;-63
2021/06/02 06:26:18;;;;;;;;;;;;;;;12.36;71.69;95982.97;1762307;81;20157;-59
2021/06/02 06:28:50;;;;;;;;;;;;;;;12.40;70.84;95980.23;1724274;81;20146;-62
2021/06/02 06:31:22;;;;;;;;;;;;;;;12.43;69.90;95980.17;1766479;81;20157;-63
2021/06/02 06:33:50;;;;;;;;;;;;;;;12.52;70.96;95981.75;1766331;81;20208;-61
2021/06/02 06:36:19;;;;;;;;;;;;;;;12.61;70.10;95978.06;1766285;81;20304;-64
2021/06/02 06:39:17;;;;;;;;;;;;;;;12.74;70.80;95985.70;1766466;81;20154;-60
2021/06/02 06:41:46;;;;;;;;;;;;;;;12.80;70.20;95975.47;1766621;81;20180;-62
2021/06/02 06:44:13;;;;;;;;;;;;;;;12.87;69.57;95978.83;1766434;81;20169;-63
2021/06/02 06:46:40;;;;;;;;;;;;;;;12.89;69.54;95978.35;1766384;81;20145;-62
2021/06/02 06:49:07;;;;;;;;;;;;;;;12.93;68.76;95980.91;1766664;81;20136;-62
2021/06/02 06:51:34;;;;;;;;;;;;;;;12.91;68.86;95985.82;1766248;81;20133;-63
2021/06/02 06:54:01;;;;;;;;;;;;;;;12.94;68.37;95983.09;1734502;81;20157;-63
2021/06/02 06:56:29;;;;;;;;;;;;;;;12.95;67.19;95986.16;1734412;81;20204;-62
2021/06/02 06:58:57;;;;;;;;;;;;;;;13.01;67.82;95983.39;1766353;81;20161;-62
2021/06/02 07:01:24;;;;;;;;;;;;;;;13.18;67.28;95980.38;1766511;81;20141;-62
2021/06/02 07:03:51;;;;;;;;;;;;;;;13.41;68.70;95987.37;1766621;81;20185;-63
2021/06/02 07:06:17;;;;;;;;;;;;;;;13.61;66.83;95988.68;1766265;81;20490;-61
2021/06/02 07:08:44;;;;;;;;;;;;;;;13.81;66.31;95990.39;1766299;81;20153;-61
2021/06/02 07:11:14;;;;;;;;;;;;;;;13.98;66.17;95993.05;1766455;81;20169;-61
2021/06/02 07:13:43;;;;;;;;;;;;;;;14.17;66.70;95986.83;1766292;81;20125;-62
2021/06/02 07:16:11;;;;;;;;;;;;;;;14.44;65.05;95982.11;1766270;81;20145;-64
2021/06/02 07:18:41;;;;;;;;;;;;;;;14.71;65.36;95983.13;1766461;81;20172;-63
2021/06/02 07:21:08;;;;;;;;;;;;;;;14.71;62.85;95985.78;1766407;81;20141;-65
2021/06/02 07:23:37;;;;;;;;;;;;;;;14.58;63.54;95985.72;1765606;81;20157;-62
2021/06/02 07:26:04;;;;;;;;;;;;;;;14.43;62.14;95986.12;1755467;81;20501;-62
2021/06/02 07:28:36;;;;;;;;;;;;;;;14.36;63.06;95984.08;1758010;81;20164;-62
2021/06/02 07:31:04;;;;;;;;;;;;;;;14.32;62.98;95982.44;1758249;81;20172;-63
2021/06/02 07:33:31;;;;;;;;;;;;;;;14.24;61.84;95977.33;1758293;81;20294;-65
2021/06/02 07:35:58;;;;;;;;;;;;;;;14.20;62.18;95976.98;1754171;81;20145;-61
2021/06/02 07:38:24;;;;;;;;;;;;;;;14.13;62.62;95976.73;1766709;81;20489;-61
2021/06/02 07:40:51;;;;;;;;;;;;;;;14.19;63.18;95982.36;1766802;81;20188;-66
2021/06/02 07:43:18;;;;;;;;;;;;;;;14.20;62.93;95986.28;1766788;81;20150;-61
2021/06/02 07:45:44;;;;;;;;;;;;;;;14.16;62.76;95978.00;1766624;81;20153;-60
2021/06/02 07:48:10;;;;;;;;;;;;;;;14.15;63.60;95980.22;1766461;81;20169;-61
2021/06/02 07:50:37;;;;;;;;;;;;;;;14.17;61.37;95973.09;1766764;81;20474;-62
2021/06/02 07:53:04;;;;;;;;;;;;;;;14.16;61.82;95979.76;1766696;81;20145;-61
2021/06/02 07:55:31;;;;;;;;;;;;;;;14.13;61.09;95977.19;1766570;81;20153;-61
2021/06/02 07:57:57;;;;;;;;;;;;;;;14.09;61.55;95979.07;1766542;81;20145;-63
2021/06/02 08:00:24;;;;;;;;;;;;;;;14.09;63.38;95980.86;1766897;81;20181;-64
2021/06/02 08:02:50;;;;;;;;;;;;;;;14.04;59.64;95984.49;1766683;81;20137;-62
2021/06/02 08:05:17;;;;;;;;;;;;;;;14.01;61.27;95984.58;1766671;81;20155;-61
2021/06/02 08:07:44;;;;;;;;;;;;;;;13.98;61.08;95989.08;1766679;81;20169;-63
2021/06/02 08:10:12;;;;;;;;;;;;;;;13.93;61.31;95990.97;1766653;81;20550;-62
2021/06/02 08:12:39;;;;;;;;;;;;;;;13.93;61.92;95990.97;1767031;81;20157;-62
2021/06/02 08:15:08;;;;;;;;;;;;;;;13.95;61.28;95991.81;1766634;81;20153;-62
2021/06/02 08:17:36;;;;;;;;;;;;;;;13.98;61.61;95990.40;1766756;81;20153;-63
2021/06/02 08:20:08;;;;;;;;;;;;;;;14.00;61.94;95992.56;1766102;81;20236;-64
2021/06/02 08:22:35;;;;;;;;;;;;;;;14.01;61.97;95993.86;1766598;81;20172;-61
2021/06/02 08:25:04;;;;;;;;;;;;;;;14.09;61.57;95994.99;1766804;81;20189;-60
2021/06/02 08:27:30;;;;;;;;;;;;;;;14.16;62.58;95995.25;1766804;81;20145;-61
2021/06/02 08:29:57;;;;;;;;;;;;;;;14.37;60.35;95994.27;1766569;81;20606;-61
2021/06/02 08:32:24;;;;;;;;;;;;;;;14.61;59.50;95982.97;1766756;81;20145;-62
2021/06/02 08:34:52;;;;;;;;;;;;;;;14.81;59.42;95987.72;1766710;81;20462;-62
2021/06/02 08:37:18;;;;;;;;;;;;;;;15.05;58.97;95990.13;1766525;81;20177;-60
2021/06/02 08:39:45;;;;;;;;;;;;;;;15.26;59.49;95984.61;1766789;81;20181;-61
2021/06/02 08:42:12;;;;;;;;;;;;;;;15.34;55.86;95987.89;1766795;81;20177;-60
2021/06/02 08:44:39;;;;;;;;;;;;;;;15.41;58.11;95984.59;1766571;81;20506;-61
2021/06/02 08:47:06;;;;;;;;;;;;;;;15.42;58.31;95982.80;1766476;81;20145;-60
2021/06/02 08:49:33;;;;;;;;;;;;;;;15.39;56.04;95992.22;1756721;81;20162;-60
2021/06/02 08:52:05;;;;;;;;;;;;;;;15.31;55.47;95980.48;1754769;82;20519;-60
2021/06/02 08:54:32;;;;;;;;;;;;;;;15.24;55.35;95989.09;1754096;82;20161;-63
2021/06/02 08:57:02;;;;;;;;;;;;;;;15.13;55.22;95987.23;1754803;82;20149;-63
2021/06/02 08:59:29;;;;;;;;;;;;;;;15.00;56.52;95988.06;1753192;82;20164;-62
2021/06/02 09:01:55;;;;;;;;;;;;;;;14.96;56.83;95989.52;1754908;82;20157;-60
2021/06/02 09:04:21;;;;;;;;;;;;;;;14.95;58.26;95994.44;1754807;82;20213;-59
2021/06/02 09:06:49;;;;;;;;;;;;;;;14.96;57.01;95994.38;1754932;82;20150;-60
2021/06/02 09:09:16;;;;;;;;;;;;;;;14.94;57.27;96000.19;1754880;82;20161;-61
2021/06/02 09:11:46;;;;;;;;;;;;;;;14.95;57.46;95997.09;1754924;82;20157;-61
2021/06/02 09:14:27;;;;;;;;;;;;;;;15.03;57.32;95998.59;1754907;82;20153;-61
2021/06/02 09:16:56;;;;;;;;;;;;;;;15.09;56.14;96002.42;1754772;82;20477;-61
2021/06/02 09:19:48;;;;;;;;;;;;;;;15.14;57.51;96008.47;1753335;82;20134;-61
2021/06/02 09:22:19;;;;;;;;;;;;;;;15.10;53.79;96008.60;1754413;82;20141;-60
2021/06/02 09:24:57;;;;;;;;;;;;;;;15.06;54.75;96003.81;1753425;82;20150;-62
2021/06/02 09:27:44;;;;;;;;;;;;;;;14.97;52.70;96013.41;1753490;82;20546;-61
2021/06/02 09:30:16;;;;;;;;;;;;;;;14.89;55.01;96009.64;1754106;82;20181;-60
2021/06/02 09:32:51;;;;;;;;;;;;;;;14.87;56.32;96015.45;1754586;82;20197;-61
2021/06/02 09:35:18;;;;;;;;;;;;;;;14.88;56.25;96012.34;1754556;82;20185;-61
2021/06/02 09:37:56;;;;;;;;;;;;;;;14.88;57.14;96013.20;1754645;82;20490;-62
2021/06/02 09:40:38;;;;;;;;;;;;;;;14.86;57.93;96016.81;1754898;82;20514;-62
2021/06/02 09:43:05;;;;;;;;;;;;;;;14.80;57.84;96009.90;1755051;82;20146;-62
2021/06/02 09:45:33;;;;;;;;;;;;;;;14.68;54.21;96004.93;1755185;82;20167;-62
2021/06/02 09:48:02;;;;;;;;;;;;;;;14.59;54.62;96005.17;1754965;82;20454;-62
2021/06/02 09:50:32;;;;;;;;;;;;;;;14.56;55.54;96007.45;1757640;82;20562;-62
2021/06/02 09:53:00;;;;;;;;;;;;;;;14.50;55.05;96005.81;1757408;82;20151;-62
2021/06/02 09:55:29;;;;;;;;;;;;;;;14.46;55.28;96004.18;1730014;82;20502;-62
2021/06/02 09:58:08;;;;;;;;;;;;;;;14.56;56.66;96007.92;1757701;82;20161;-62
2021/06/02 10:00:46;;;;;;;;;;;;;;;14.65;55.43;96007.22;1757477;82;20467;-62
2021/06/02 10:03:15;;;;;;;;;;;;;;;14.72;53.08;96003.94;1757307;82;20157;-62
2021/06/02 10:05:47;;;;;;;;;;;;;;;14.83;51.42;96004.95;1757469;82;20522;-62
2021/06/02 10:08:30;;;;;;;;;;;;;;;14.98;51.68;96004.50;1757264;82;20182;-62
2021/06/02 10:10:57;;;;;;;;;;;;;;;15.05;51.59;96003.88;1757658;81;20142;-62
2021/06/02 10:13:27;;;;;;;;;;;;;;;15.14;51.91;96004.48;1757482;81;20142;-62
2021/06/02 10:15:54;;;;;;;;;;;;;;;15.29;51.71;96003.58;1757389;82;20141;-63
2021/06/02 10:18:29;;;;;;;;;;;;;;;15.37;51.74;96001.55;1757462;82;20450;-62
2021/06/02 10:21:00;;;;;;;;;;;;;;;15.48;53.05;96002.11;1757506;82;20213;-62
2021/06/02 10:23:27;;;;;;;;;;;;;;;15.62;50.53;96000.33;1757251;82;20169;-62
2021/06/02 10:25:54;;;;;;;;;;;;;;;15.88;50.23;95996.02;1757459;82;20174;-62
2021/06/02 10:28:20;;;;;;;;;;;;;;;16.26;51.36;95999.17;1757531;82;20178;-62
2021/06/02 10:30:49;;;;;;;;;;;;;;;16.60;48.08;95990.38;1757372;82;20153;-62
2021/06/02 10:33:15;;;;;;;;;;;;;;;16.80;46.56;95991.49;1757566;82;20169;-62
2021/06/02 10:35:42;;;;;;;;;;;;;;;16.91;47.60;95993.75;1757421;82;20186;-62
2021/06/02 10:38:09;;;;;;;;;;;;;;;16.84;47.63;95994.46;1757369;82;20141;-62
2021/06/02 10:40:37;;;;;;;;;;;;;;;16.73;46.18;95996.16;1730025;82;20172;-62
2021/06/02 10:43:10;;;;;;;;;;;;;;;16.56;47.59;95999.89;1757441;82;20150;-62
2021/06/02 10:45:46;;;;;;;;;;;;;;;16.34;47.90;96001.96;1757461;82;20166;-62
2021/06/02 10:48:12;;;;;;;;;;;;;;;16.17;50.32;96005.20;1757270;82;20146;-63
2021/06/02 10:50:47;;;;;;;;;;;;;;;16.03;49.37;96010.57;1755004;82;20517;-62
2021/06/02 10:53:22;;;;;;;;;;;;;;;15.75;47.43;96011.51;1754971;82;20142;-62
2021/06/02 10:55:57;;;;;;;;;;;;;;;15.50;48.25;96012.71;1755048;82;20130;-62
2021/06/02 10:58:33;;;;;;;;;;;;;;;15.35;51.64;96022.03;1754945;82;20177;-62
2021/06/02 11:01:09;;;;;;;;;;;;;;;15.29;53.42;96020.87;1755048;82;20157;-62
2021/06/02 11:03:38;;;;;;;;;;;;;;;15.21;49.19;96020.23;1755146;82;20174;-62
2021/06/02 11:06:17;;;;;;;;;;;;;;;15.17;49.47;96019.90;1755017;82;20145;-62
2021/06/02 11:08:56;;;;;;;;;;;;;;;15.19;49.82;96020.73;1754930;82;20193;-62
2021/06/02 11:11:33;;;;;;;;;;;;;;;15.22;48.27;96018.88;1754916;82;20521;-62
2021/06/02 11:14:15;;;;;;;;;;;;;;;15.31;48.66;96023.02;1755062;82;20490;-61
2021/06/02 11:16:48;;;;;;;;;;;;;;;15.46;48.34;96021.69;1754489;82;20169;-62
2021/06/02 11:19:17;;;;;;;;;;;;;;;15.71;47.36;96021.83;1755089;82;20142;-62
2021/06/02 11:21:56;;;;;;;;;;;;;;;15.94;48.37;96024.59;1755050;82;20498;-62
2021/06/02 11:24:36;;;;;;;;;;;;;;;16.20;46.28;96017.53;1755009;82;20138;-62
2021/06/02 11:27:17;;;;;;;;;;;;;;;16.51;48.41;96015.17;1755019;82;20470;-62
2021/06/02 11:29:54;;;;;;;;;;;;;;;16.66;44.82;96009.30;1754937;82;20146;-62
2021/06/02 11:32:26;;;;;;;;;;;;;;;16.55;46.69;96014.98;1754824;82;20142;-63
2021/06/02 11:34:56;;;;;;;;;;;;;;;16.45;45.57;96016.23;1755328;82;20198;-63
2021/06/02 11:37:27;;;;;;;;;;;;;;;16.42;44.73;96010.55;1754410;82;20173;-62
2021/06/02 11:40:37;;;;;;;;;;;;;;;16.38;46.71;96017.39;1805274;79;20429;-61
2021/06/02 11:43:04;;;;;;;;;;;;;;;16.21;45.33;96012.17;1765358;81;20108;-61
2021/06/02 11:45:30;;;;;;;;;;;;;;;16.16;48.37;96026.09;1746627;81;20124;-61
2021/06/02 11:48:00;;;;;;;;;;;;;;;16.09;46.20;96024.56;1765082;81;20409;-60
2021/06/02 11:50:25;;;;;;;;;;;;;;;16.08;48.53;96019.30;1765699;81;20104;-61
2021/06/02 11:52:57;;;;;;;;;;;;;;;16.10;47.91;96020.09;1765243;81;20128;-61
2021/06/02 11:55:24;;;;;;;;;;;;;;;16.13;48.35;96028.01;1765392;81;20108;-61
2021/06/02 11:57:52;;;;;;;;;;;;;;;16.12;46.94;96024.45;1765556;81;20105;-61
2021/06/02 12:00:23;;;;;;;;;;;;;;;16.13;49.52;96024.88;1765430;81;20109;-63
2021/06/02 12:02:55;;;;;;;;;;;;;;;16.27;46.84;96031.52;1765589;81;20096;-62
2021/06/02 12:05:36;;;;;;;;;;;;;;;16.43;49.52;96030.95;1765574;81;20108;-61
2021/06/02 12:08:04;;;;;;;;;;;;;;;16.59;46.66;96024.62;1765395;81;20132;-61
2021/06/02 12:10:42;;;;;;;;;;;;;;;16.74;47.21;96024.53;1765563;81;20109;-61
2021/06/02 12:13:27;;;;;;;;;;;;;;;16.94;45.54;96018.52;1766053;81;20362;-61
2021/06/02 12:15:59;;;;;;;;;;;;;;;16.95;42.98;96020.71;1765519;81;20132;-61
2021/06/02 12:18:44;;;;;;;;;;;;;;;16.96;42.40;96013.11;1765648;80;20108;-61
2021/06/02 12:21:11;;;;;;;;;;;;;;;16.98;43.55;96019.26;1764876;81;20119;-61
2021/06/02 12:23:50;;;;;;;;;;;;;;;16.99;42.35;96017.88;1765178;81;20124;-61
2021/06/02 12:26:26;;;;;;;;;;;;;;;16.95;42.68;96014.91;1765731;80;20104;-61
2021/06/02 12:28:53;;;;;;;;;;;;;;;16.96;42.50;96023.77;1765406;81;20104;-61
2021/06/02 12:31:32;;;;;;;;;;;;;;;17.03;42.20;96023.52;1765821;81;20125;-62
2021/06/02 12:34:13;;;;;;;;;;;;;;;17.20;42.57;96027.33;1765641;80;20413;-63
2021/06/02 12:36:45;;;;;;;;;;;;;;;17.46;43.15;96023.66;1765460;81;20084;-62
2021/06/02 12:39:13;;;;;;;;;;;;;;;17.77;42.81;96023.81;1765438;81;20104;-62
2021/06/02 12:41:42;;;;;;;;;;;;;;;17.90;40.58;96026.41;1765495;81;20096;-62
2021/06/02 12:44:09;;;;;;;;;;;;;;;17.95;40.48;96021.28;1765830;81;20147;-62
2021/06/02 12:46:35;;;;;;;;;;;;;;;18.04;40.98;96028.06;1765806;81;20125;-61
2021/06/02 12:49:07;;;;;;;;;;;;;;;18.14;42.17;96024.08;1765797;81;20116;-61
2021/06/02 12:51:33;;;;;;;;;;;;;;;18.16;41.24;96024.00;1764128;81;20410;-61
2021/06/02 12:54:01;;;;;;;;;;;;;;;18.22;40.68;96030.87;1765050;81;20088;-61
2021/06/02 12:56:27;;;;;;;;;;;;;;;18.15;41.55;96026.28;1765325;81;20100;-62
2021/06/02 12:58:56;;;;;;;;;;;;;;;18.16;41.28;96030.20;1765333;81;20105;-61
2021/06/02 13:01:29;;;;;;;;;;;;;;;18.10;40.49;96031.80;1765369;81;20146;-61
2021/06/02 13:03:56;;;;;;;;;;;;;;;18.14;40.68;96032.53;1764160;81;20089;-62
2021/06/02 13:06:25;;;;;;;;;;;;;;;18.23;41.81;96036.64;1765133;81;20092;-62
2021/06/02 13:08:51;;;;;;;;;;;;;;;18.37;41.83;96024.92;1764980;81;20100;-62
2021/06/02 13:11:22;;;;;;;;;;;;;;;18.37;41.95;96035.13;1764638;81;20131;-62
2021/06/02 13:13:49;;;;;;;;;;;;;;;18.31;40.46;96033.17;1765341;81;20108;-62
2021/06/02 13:16:17;;;;;;;;;;;;;;;18.28;40.76;96038.65;1765225;81;20097;-62
2021/06/02 13:18:56;;;;;;;;;;;;;;;18.18;39.82;96041.30;1765088;81;20120;-62
2021/06/02 13:21:33;;;;;;;;;;;;;;;18.07;39.73;96041.28;1764709;81;20397;-63
2021/06/02 13:24:15;;;;;;;;;;;;;;;17.95;40.32;96047.12;1764939;81;20105;-63
2021/06/02 13:26:58;;;;;;;;;;;;;;;17.87;40.74;96049.23;1765361;81;20378;-62
2021/06/02 13:29:24;;;;;;;;;;;;;;;17.78;39.51;96046.41;1765375;81;20133;-63
2021/06/02 13:31:52;;;;;;;;;;;;;;;17.78;40.38;96047.75;1765312;81;20562;-62